Time;durP1;ratioP1;P1;durP2;ratioP2;P2;SDS_P1;SDS_P2;PMS_P1;PMS_P2;Temp;Humidity;BMP_temperature;BMP_pressure;BME280_temperature;BME280_humidity;BME280_pressure;Samples;Min_cycle;Max_cycle;Signal;HPM_P1;HPM_P2
2023/12/04 00:01:36;;;;;;;2.77;1.20;;;-3.80;99.90;;;;;;5038086;28;20964;-78
2023/12/04 00:04:03;;;;;;;1.77;0.87;;;-3.80;99.90;;;;;;5038470;28;20447;-78
2023/12/04 00:06:30;;;;;;;0.93;0.57;;;-3.80;99.90;;;;;;5038134;28;20913;-78
2023/12/04 00:08:56;;;;;;;0.83;0.70;;;-3.90;99.90;;;;;;5038096;28;20454;-78
2023/12/04 00:11:23;;;;;;;0.60;0.60;;;-4.00;99.90;;;;;;5038244;28;20450;-78
2023/12/04 00:13:50;;;;;;;8.73;1.70;;;-4.10;99.90;;;;;;5037879;28;21022;-78
2023/12/04 00:16:16;;;;;;;0.90;0.90;;;-4.10;99.90;;;;;;5038015;28;20441;-78
2023/12/04 00:18:44;;;;;;;1.40;1.33;;;-4.10;99.90;;;;;;5037511;28;20417;-78
2023/12/04 00:21:11;;;;;;;1.07;1.07;;;-4.10;99.90;;;;;;5036981;28;20453;-78
2023/12/04 00:23:38;;;;;;;1.37;1.17;;;-4.10;99.90;;;;;;5037166;28;20439;-78
2023/12/04 00:26:05;;;;;;;1.07;1.03;;;-4.10;99.90;;;;;;5037246;28;20467;-78
2023/12/04 00:28:32;;;;;;;1.30;1.30;;;-4.00;99.90;;;;;;5036775;28;20425;-78
2023/12/04 00:30:59;;;;;;;2.73;0.93;;;-4.10;99.90;;;;;;5036780;28;20425;-78
2023/12/04 00:33:25;;;;;;;1.67;0.63;;;-4.10;99.90;;;;;;5036787;28;20438;-78
2023/12/04 00:35:54;;;;;;;10.83;2.87;;;-4.10;99.90;;;;;;5037508;28;20479;-78
2023/12/04 00:38:20;;;;;;;4.93;1.23;;;-4.10;99.90;;;;;;5036981;28;20861;-78
2023/12/04 00:40:47;;;;;;;5.03;1.37;;;-4.10;99.90;;;;;;5036797;28;20412;-78
2023/12/04 00:43:14;;;;;;;0.67;0.67;;;-4.10;99.90;;;;;;5036783;28;20417;-78
2023/12/04 00:45:40;;;;;;;0.97;0.87;;;-4.10;99.90;;;;;;5036598;28;20466;-78
2023/12/04 00:48:07;;;;;;;0.73;0.40;;;-4.10;99.90;;;;;;5036884;28;20432;-78
2023/12/04 00:50:34;;;;;;;0.50;0.50;;;-4.10;99.90;;;;;;5036598;28;20442;-78
2023/12/04 00:53:02;;;;;;;0.40;0.40;;;-4.10;99.90;;;;;;5036607;28;20446;-78
2023/12/04 00:55:29;;;;;;;3.93;1.60;;;-4.00;99.90;;;;;;5036250;28;20460;-78
2023/12/04 00:57:55;;;;;;;0.40;0.40;;;-4.10;99.90;;;;;;5036797;28;20446;-78
2023/12/04 01:00:22;;;;;;;0.40;0.40;;;-4.00;99.90;;;;;;5036395;28;20439;-78
2023/12/04 01:02:49;;;;;;;0.30;0.30;;;-4.00;99.90;;;;;;5036326;28;20432;-78
2023/12/04 01:05:16;;;;;;;0.30;0.30;;;-4.00;99.90;;;;;;5044660;28;20429;-77
2023/12/04 01:07:43;;;;;;;1.77;0.87;;;-4.00;99.90;;;;;;5034820;28;20446;-78
2023/12/04 01:10:11;;;;;;;0.83;0.83;;;-4.00;99.90;;;;;;5034701;28;20417;-78
2023/12/04 01:12:38;;;;;;;1.10;0.80;;;-4.00;99.90;;;;;;5034989;28;20445;-78
2023/12/04 01:15:05;;;;;;;1.03;0.93;;;-4.00;99.90;;;;;;5034406;28;20453;-78
2023/12/04 01:17:32;;;;;;;0.50;0.50;;;-3.90;99.90;;;;;;5034417;28;20466;-78
2023/12/04 01:19:59;;;;;;;0.67;0.67;;;-3.90;99.90;;;;;;5034294;28;20806;-78
2023/12/04 01:22:25;;;;;;;0.60;0.50;;;-3.90;99.90;;;;;;5034226;28;20424;-78
2023/12/04 01:24:52;;;;;;;0.70;0.70;;;-3.90;99.90;;;;;;5034427;28;20450;-78
2023/12/04 01:27:20;;;;;;;0.87;0.87;;;-3.90;99.90;;;;;;5034317;28;20467;-78
2023/12/04 01:29:47;;;;;;;0.47;0.43;;;-3.90;99.90;;;;;;5034020;28;20451;-78
2023/12/04 01:32:14;;;;;;;0.60;0.60;;;-3.90;99.90;;;;;;5034264;28;20421;-78
2023/12/04 01:34:40;;;;;;;0.50;0.50;;;-3.90;99.90;;;;;;5034226;28;20485;-78
2023/12/04 01:37:07;;;;;;;0.60;0.60;;;-3.90;99.90;;;;;;5033794;28;20466;-78
2023/12/04 01:39:34;;;;;;;1.13;1.03;;;-3.90;99.90;;;;;;5034098;28;20536;-78
2023/12/04 01:42:00;;;;;;;1.23;0.93;;;-3.90;99.90;;;;;;5034006;28;20456;-78
2023/12/04 01:44:28;;;;;;;0.70;0.70;;;-3.80;99.90;;;;;;5035499;28;20805;-78
2023/12/04 01:46:56;;;;;;;0.87;0.87;;;-3.80;99.90;;;;;;5037250;28;20466;-78
2023/12/04 01:49:23;;;;;;;0.90;0.70;;;-3.80;99.90;;;;;;5037063;28;20845;-78
2023/12/04 01:51:50;;;;;;;0.50;0.50;;;-3.80;99.90;;;;;;5036276;28;20967;-78
2023/12/04 01:54:17;;;;;;;0.40;0.40;;;-3.80;99.90;;;;;;5036900;28;20799;-78
2023/12/04 01:56:45;;;;;;;3.17;1.27;;;-3.70;99.90;;;;;;5036485;28;20437;-78
2023/12/04 01:59:11;;;;;;;0.53;0.53;;;-3.70;99.90;;;;;;5036402;28;20825;-78
2023/12/04 02:01:40;;;;;;;1.90;1.17;;;-3.70;99.90;;;;;;5036458;28;20417;-78
2023/12/04 02:04:07;;;;;;;0.60;0.30;;;-3.60;99.90;;;;;;5036313;28;20439;-78
2023/12/04 02:06:34;;;;;;;0.63;0.63;;;-3.60;99.90;;;;;;5037604;28;20460;-78
2023/12/04 02:09:02;;;;;;;1.40;0.77;;;-3.60;99.90;;;;;;5042529;28;20517;-78
2023/12/04 02:11:29;;;;;;;1.13;1.03;;;-3.60;99.90;;;;;;5043117;28;20449;-78
2023/12/04 02:13:56;;;;;;;0.40;0.40;;;-3.60;99.90;;;;;;5042792;28;20478;-78
2023/12/04 02:16:26;;;;;;;4.70;2.27;;;-3.70;99.90;;;;;;5042256;28;20470;-78
2023/12/04 02:18:54;;;;;;;0.73;0.57;;;-3.70;99.90;;;;;;5042607;28;20457;-78
2023/12/04 02:21:21;;;;;;;1.43;1.33;;;-3.70;99.90;;;;;;5042353;28;20410;-78
2023/12/04 02:23:50;;;;;;;1.43;0.87;;;-3.60;99.90;;;;;;5041926;28;20447;-78
2023/12/04 02:26:19;;;;;;;1.53;0.53;;;-3.70;99.90;;;;;;5041793;28;21089;-78
2023/12/04 02:28:51;;;;;;;0.33;0.30;;;-3.70;99.90;;;;;;5041997;28;20413;-78
2023/12/04 02:31:19;;;;;;;0.70;0.57;;;-3.70;99.90;;;;;;5042022;28;20404;-78
2023/12/04 02:33:48;;;;;;;0.53;0.53;;;-3.80;99.90;;;;;;5042070;28;20446;-78
2023/12/04 02:36:16;;;;;;;0.50;0.50;;;-3.80;99.90;;;;;;5041486;28;20987;-78
2023/12/04 02:38:43;;;;;;;0.73;0.47;;;-3.70;99.90;;;;;;5041782;28;20442;-78
2023/12/04 02:41:11;;;;;;;1.33;0.50;;;-3.80;99.90;;;;;;5041266;28;20951;-78
2023/12/04 02:43:37;;;;;;;0.30;0.30;;;-3.80;99.90;;;;;;5041413;28;20787;-78
2023/12/04 02:46:05;;;;;;;0.40;0.40;;;-3.80;99.90;;;;;;5041368;28;20466;-78
2023/12/04 02:48:31;;;;;;;2.83;1.67;;;-3.80;99.90;;;;;;5041729;28;20438;-78
2023/12/04 02:50:58;;;;;;;0.40;0.40;;;-3.90;99.90;;;;;;5040841;28;20910;-78
2023/12/04 02:53:25;;;;;;;2.20;0.77;;;-3.90;99.90;;;;;;5041695;28;20461;-78
2023/12/04 02:55:51;;;;;;;0.60;0.60;;;-3.90;99.90;;;;;;5041265;28;20859;-78
2023/12/04 02:58:19;;;;;;;0.37;0.37;;;-3.90;99.90;;;;;;5041209;28;20446;-78
2023/12/04 03:00:46;;;;;;;5.13;1.33;;;-3.80;99.90;;;;;;5040752;28;20421;-78
2023/12/04 03:03:13;;;;;;;0.50;0.50;;;-3.80;99.90;;;;;;5041386;28;20413;-78
2023/12/04 03:05:40;;;;;;;1.33;1.07;;;-3.80;99.90;;;;;;5040372;28;20479;-78
2023/12/04 03:08:06;;;;;;;0.80;0.80;;;-3.80;99.90;;;;;;5040657;28;20421;-78
2023/12/04 03:10:33;;;;;;;2.50;1.73;;;-3.80;99.90;;;;;;5040772;28;20457;-78
2023/12/04 03:13:00;;;;;;;0.37;0.37;;;-3.80;99.90;;;;;;5040642;28;20586;-78
2023/12/04 03:15:28;;;;;;;1.13;0.77;;;-3.80;99.90;;;;;;5040406;28;20487;-78
2023/12/04 03:17:55;;;;;;;0.30;0.30;;;-3.80;99.90;;;;;;5040387;28;20446;-78
2023/12/04 03:20:22;;;;;;;0.70;0.70;;;-3.80;99.90;;;;;;5041417;28;20425;-77
2023/12/04 03:22:49;;;;;;;0.93;0.80;;;-3.80;99.90;;;;;;5043682;28;20432;-78
2023/12/04 03:25:16;;;;;;;0.60;0.60;;;-3.90;99.90;;;;;;5036382;28;20446;-78
2023/12/04 03:27:42;;;;;;;0.43;0.43;;;-3.80;99.90;;;;;;5036128;28;20448;-78
2023/12/04 03:30:10;;;;;;;1.37;0.63;;;-3.80;99.90;;;;;;5036110;28;20417;-78
2023/12/04 03:32:38;;;;;;;2.83;1.60;;;-3.80;99.90;;;;;;5035860;28;20454;-78
2023/12/04 03:35:05;;;;;;;1.23;0.77;;;-3.90;99.90;;;;;;5035989;28;20493;-78
2023/12/04 03:37:31;;;;;;;1.00;1.00;;;-3.80;99.90;;;;;;5035998;28;20458;-78
2023/12/04 03:39:58;;;;;;;1.70;0.93;;;-3.80;99.90;;;;;;5035951;28;20446;-78
2023/12/04 03:42:25;;;;;;;0.50;0.50;;;-3.80;99.90;;;;;;5036752;28;20825;-78
2023/12/04 03:44:52;;;;;;;1.27;0.80;;;-3.80;99.90;;;;;;5038421;28;20443;-78
2023/12/04 03:47:18;;;;;;;0.70;0.70;;;-3.70;99.90;;;;;;5038317;28;20989;-78
2023/12/04 03:49:46;;;;;;;4.43;1.23;;;-3.60;99.90;;;;;;5038667;28;20422;-78
2023/12/04 03:52:13;;;;;;;0.30;0.30;;;-3.60;99.90;;;;;;5038693;28;20425;-78
2023/12/04 03:54:40;;;;;;;0.97;0.90;;;-3.50;99.90;;;;;;5038787;28;20439;-78
2023/12/04 03:57:07;;;;;;;0.80;0.80;;;-3.50;99.90;;;;;;5038532;28;20463;-78
2023/12/04 03:59:33;;;;;;;1.03;0.47;;;-3.50;99.90;;;;;;5038789;28;20966;-78
2023/12/04 04:02:00;;;;;;;0.93;0.60;;;-3.40;99.90;;;;;;5038571;28;20428;-78
2023/12/04 04:04:27;;;;;;;0.43;0.43;;;-3.40;99.90;;;;;;5037685;28;20964;-78
2023/12/04 04:06:55;;;;;;;1.60;1.27;;;-3.40;99.90;;;;;;5037760;28;20462;-78
2023/12/04 04:09:22;;;;;;;0.60;0.60;;;-3.30;99.90;;;;;;5038330;28;20454;-78
2023/12/04 04:11:48;;;;;;;0.80;0.80;;;-3.30;99.90;;;;;;5038265;28;20446;-78
2023/12/04 04:14:15;;;;;;;0.67;0.67;;;-3.30;99.90;;;;;;5037908;28;20842;-78
2023/12/04 04:16:42;;;;;;;0.80;0.60;;;-3.30;99.90;;;;;;5037776;28;20486;-78
2023/12/04 04:19:08;;;;;;;1.80;0.93;;;-3.30;99.90;;;;;;5037939;28;20455;-78
2023/12/04 04:21:35;;;;;;;0.90;0.90;;;-3.40;99.90;;;;;;5037766;28;20457;-78
2023/12/04 04:24:03;;;;;;;0.63;0.63;;;-3.40;99.90;;;;;;5037625;28;20443;-78
2023/12/04 04:26:30;;;;;;;2.33;2.20;;;-3.30;99.90;;;;;;5036975;28;20454;-78
2023/12/04 04:28:57;;;;;;;0.60;0.40;;;-3.20;99.90;;;;;;5037069;28;20417;-78
2023/12/04 04:31:23;;;;;;;0.30;0.30;;;-3.30;99.90;;;;;;5037069;28;20443;-78
2023/12/04 04:33:50;;;;;;;0.30;0.30;;;-3.30;99.90;;;;;;5036836;28;20457;-78
2023/12/04 04:36:17;;;;;;;0.87;0.83;;;-3.40;99.90;;;;;;5036776;28;20510;-78
2023/12/04 04:38:44;;;;;;;0.97;0.97;;;-3.40;99.90;;;;;;5036840;28;20469;-78
2023/12/04 04:41:15;;;;;;;0.93;0.93;;;-3.40;99.90;;;;;;5036795;28;20442;-78
2023/12/04 04:43:42;;;;;;;0.83;0.73;;;-3.40;99.90;;;;;;5036520;28;20427;-78
2023/12/04 04:46:09;;;;;;;1.57;1.47;;;-3.40;99.90;;;;;;5036507;28;20463;-78
2023/12/04 04:48:36;;;;;;;0.40;0.40;;;-3.40;99.90;;;;;;5036451;28;20825;-78
2023/12/04 04:51:03;;;;;;;0.43;0.43;;;-3.40;99.90;;;;;;5036540;28;20812;-78
2023/12/04 04:53:30;;;;;;;0.83;0.50;;;-3.40;99.90;;;;;;5037434;28;20871;-78
2023/12/04 04:55:57;;;;;;;0.50;0.50;;;-3.40;99.90;;;;;;5036534;28;20461;-78
2023/12/04 04:58:25;;;;;;;0.47;0.47;;;-3.40;99.90;;;;;;5036865;28;20424;-78
2023/12/04 05:00:51;;;;;;;3.60;1.53;;;-3.30;99.90;;;;;;5036252;28;20457;-78
2023/12/04 05:03:18;;;;;;;0.30;0.30;;;-3.30;99.90;;;;;;5035958;28;20431;-78
2023/12/04 05:05:45;;;;;;;1.33;1.23;;;-3.30;99.90;;;;;;5036131;28;20874;-78
2023/12/04 05:08:12;;;;;;;0.60;0.60;;;-3.20;99.90;;;;;;5036522;28;20972;-78
2023/12/04 05:10:40;;;;;;;0.40;0.30;;;-3.20;99.90;;;;;;5036681;28;20453;-78
2023/12/04 05:13:05;;;;;;;0.43;0.43;;;-3.20;99.90;;;;;;5035530;28;20435;-78
2023/12/04 05:15:33;;;;;;;0.30;0.23;;;-3.20;99.90;;;;;;5036409;28;20482;-78
2023/12/04 05:18:00;;;;;;;10.13;0.97;;;-3.20;99.90;;;;;;5035615;28;20202;-78
2023/12/04 05:20:27;;;;;;;1.27;0.77;;;-3.20;99.90;;;;;;5035957;28;20513;-78
2023/12/04 05:22:54;;;;;;;4.10;1.00;;;-3.20;99.90;;;;;;5035927;28;21002;-78
2023/12/04 05:25:20;;;;;;;0.43;0.43;;;-3.20;99.90;;;;;;5035633;28;20416;-78
2023/12/04 05:27:47;;;;;;;0.57;0.50;;;-3.30;99.90;;;;;;5035710;28;20451;-78
2023/12/04 05:30:14;;;;;;;0.60;0.57;;;-3.10;99.90;;;;;;5036088;28;20462;-78
2023/12/04 05:32:42;;;;;;;1.37;1.37;;;-3.20;99.90;;;;;;5036153;28;20454;-78
2023/12/04 05:35:09;;;;;;;2.00;0.90;;;-3.20;99.90;;;;;;5035982;28;20446;-78
2023/12/04 05:37:36;;;;;;;0.70;0.70;;;-3.10;99.90;;;;;;5046551;28;20448;-78
2023/12/04 05:40:04;;;;;;;0.70;0.70;;;-3.10;99.90;;;;;;5038280;28;20454;-78
2023/12/04 05:42:31;;;;;;;0.50;0.50;;;-3.10;99.90;;;;;;5033717;28;20451;-77
2023/12/04 05:44:57;;;;;;;2.40;0.87;;;-3.20;99.90;;;;;;5034165;28;20447;-78
2023/12/04 05:47:24;;;;;;;2.73;1.30;;;-3.20;99.90;;;;;;5034356;28;20495;-78
2023/12/04 05:49:52;;;;;;;0.40;0.40;;;-3.20;99.90;;;;;;5033965;28;20439;-78
2023/12/04 05:52:19;;;;;;;0.53;0.53;;;-3.20;99.90;;;;;;5034302;28;20422;-78
2023/12/04 05:54:46;;;;;;;1.30;0.77;;;-3.20;99.90;;;;;;5034380;28;20982;-78
2023/12/04 05:57:12;;;;;;;1.23;1.10;;;-3.10;99.90;;;;;;5033566;28;20461;-78
2023/12/04 05:59:39;;;;;;;1.83;1.40;;;-3.20;99.90;;;;;;5033900;28;20417;-78
2023/12/04 06:02:06;;;;;;;4.17;1.90;;;-3.20;99.90;;;;;;5035081;28;20512;-78
2023/12/04 06:04:33;;;;;;;2.73;0.90;;;-3.20;99.90;;;;;;5037183;28;20421;-78
2023/12/04 06:07:01;;;;;;;0.40;0.40;;;-3.20;99.90;;;;;;5036567;28;20485;-78
2023/12/04 06:09:28;;;;;;;0.80;0.80;;;-3.20;99.90;;;;;;5038000;28;20496;-78
2023/12/04 06:11:54;;;;;;;0.50;0.50;;;-3.30;99.90;;;;;;5036686;28;20453;-78
2023/12/04 06:14:21;;;;;;;0.70;0.63;;;-3.30;99.90;;;;;;5036804;28;20436;-78
2023/12/04 06:16:48;;;;;;;0.77;0.77;;;-3.30;99.90;;;;;;5036925;28;20482;-78
2023/12/04 06:19:15;;;;;;;0.40;0.40;;;-3.20;99.90;;;;;;5037284;28;20442;-78
2023/12/04 06:21:42;;;;;;;2.50;2.10;;;-3.20;99.90;;;;;;5036449;28;20522;-78
2023/12/04 06:24:11;;;;;;;0.50;0.50;;;-3.20;99.90;;;;;;5035904;28;20417;-78
2023/12/04 06:26:42;;;;;;;0.57;0.40;;;-3.40;99.90;;;;;;5035973;28;20459;-78
2023/12/04 06:29:09;;;;;;;0.80;0.80;;;-3.50;99.90;;;;;;5035935;28;20419;-78
2023/12/04 06:31:37;;;;;;;0.30;0.27;;;-3.50;99.90;;;;;;5036555;28;20447;-78
2023/12/04 06:34:04;;;;;;;0.50;0.47;;;-3.40;99.90;;;;;;5035967;28;20405;-78
2023/12/04 06:36:36;;;;;;;0.50;0.50;;;-3.50;99.90;;;;;;5035134;28;20465;-78
2023/12/04 06:39:04;;;;;;;0.63;0.53;;;-3.40;99.90;;;;;;5035799;28;20435;-78
2023/12/04 06:41:33;;;;;;;0.97;0.60;;;-3.20;99.90;;;;;;5035647;28;20446;-78
2023/12/04 06:44:00;;;;;;;1.87;1.40;;;-3.20;99.90;;;;;;5035267;28;20461;-78
2023/12/04 06:46:31;;;;;;;0.50;0.50;;;-3.10;99.90;;;;;;5035920;28;20441;-78
2023/12/04 06:48:59;;;;;;;1.27;0.60;;;-3.10;99.90;;;;;;5035386;28;20870;-78
2023/12/04 06:51:26;;;;;;;1.20;0.90;;;-3.00;99.90;;;;;;5035333;28;20418;-78
2023/12/04 06:53:53;;;;;;;0.43;0.43;;;-3.00;99.90;;;;;;5037805;28;20789;-78
2023/12/04 06:56:19;;;;;;;7.50;2.47;;;-3.00;99.90;;;;;;5039125;28;20465;-78
2023/12/04 06:58:47;;;;;;;0.97;0.63;;;-2.80;99.90;;;;;;5038637;28;20449;-78
2023/12/04 07:01:14;;;;;;;8.13;0.93;;;-3.00;99.90;;;;;;5038339;28;20928;-78
2023/12/04 07:03:41;;;;;;;0.93;0.90;;;-3.00;99.90;;;;;;5038517;28;20441;-78
2023/12/04 07:06:08;;;;;;;0.87;0.87;;;-3.00;99.90;;;;;;5038481;28;21014;-78
2023/12/04 07:08:35;;;;;;;0.40;0.30;;;-2.90;99.90;;;;;;5038527;28;20931;-78
2023/12/04 07:11:02;;;;;;;2.33;1.10;;;-2.80;99.90;;;;;;5038199;28;20446;-78
2023/12/04 07:13:28;;;;;;;0.70;0.40;;;-2.80;99.90;;;;;;5038395;28;20793;-78
2023/12/04 07:15:56;;;;;;;1.60;0.43;;;-2.80;99.90;;;;;;5037896;28;20457;-78
2023/12/04 07:18:23;;;;;;;0.30;0.30;;;-2.80;99.90;;;;;;5037872;28;20431;-78
2023/12/04 07:20:50;;;;;;;0.70;0.70;;;-2.70;99.90;;;;;;5037792;28;20505;-78
2023/12/04 07:23:17;;;;;;;1.83;0.70;;;-2.70;99.90;;;;;;5039199;28;20787;-78
2023/12/04 07:25:43;;;;;;;0.50;0.50;;;-2.70;99.90;;;;;;5038028;28;20466;-78
2023/12/04 07:28:10;;;;;;;2.23;0.97;;;-2.60;99.90;;;;;;5038032;28;20417;-78
2023/12/04 07:30:37;;;;;;;5.83;0.57;;;-2.60;99.90;;;;;;5037681;28;20453;-78
2023/12/04 07:33:05;;;;;;;0.30;0.30;;;-2.70;99.90;;;;;;5037471;28;20429;-78
2023/12/04 07:35:32;;;;;;;1.10;0.53;;;-2.70;99.90;;;;;;5037478;28;20421;-78
2023/12/04 07:37:59;;;;;;;4.10;0.80;;;-2.80;99.90;;;;;;5037289;28;20431;-78
2023/12/04 07:40:25;;;;;;;0.50;0.50;;;-2.80;99.90;;;;;;5036630;28;20454;-78
2023/12/04 07:42:52;;;;;;;2.33;1.53;;;-2.80;99.90;;;;;;5037444;28;20439;-78
2023/12/04 07:45:19;;;;;;;0.40;0.30;;;-2.70;99.90;;;;;;5036991;28;20439;-78
2023/12/04 07:47:45;;;;;;;1.90;0.63;;;-2.70;99.90;;;;;;5036733;28;20932;-78
2023/12/04 07:50:14;;;;;;;0.90;0.90;;;-2.60;99.90;;;;;;5043064;28;20437;-78
2023/12/04 07:52:40;;;;;;;0.70;0.70;;;-2.60;99.90;;;;;;5044608;28;20451;-77
2023/12/04 07:55:08;;;;;;;4.50;0.83;;;-2.50;99.90;;;;;;5036432;28;20446;-77
2023/12/04 07:57:35;;;;;;;1.23;1.20;;;-2.50;99.90;;;;;;5035410;28;20832;-77
2023/12/04 08:00:01;;;;;;;1.13;1.13;;;-2.40;99.90;;;;;;5036780;28;20455;-78
2023/12/04 08:02:28;;;;;;;0.50;0.50;;;-2.30;99.90;;;;;;5038729;28;20447;-78
2023/12/04 08:04:55;;;;;;;0.30;0.30;;;-2.20;99.90;;;;;;5037784;28;20451;-78
2023/12/04 08:07:24;;;;;;;0.60;0.50;;;-2.10;99.90;;;;;;5037908;28;20457;-78
2023/12/04 08:09:51;;;;;;;2.60;1.00;;;-2.00;99.90;;;;;;5038222;28;20461;-78
2023/12/04 08:12:17;;;;;;;0.50;0.50;;;-2.00;99.90;;;;;;5038724;28;20439;-78
2023/12/04 08:14:44;;;;;;;0.67;0.67;;;-1.90;99.90;;;;;;5038559;28;20435;-78
2023/12/04 08:17:11;;;;;;;0.37;0.37;;;-1.90;99.90;;;;;;5038424;28;20482;-78
2023/12/04 08:19:38;;;;;;;1.80;0.90;;;-1.90;99.90;;;;;;5037644;28;20450;-78
2023/12/04 08:22:05;;;;;;;2.20;0.53;;;-1.80;99.90;;;;;;5038077;28;20443;-78
2023/12/04 08:24:33;;;;;;;1.17;0.60;;;-1.90;99.90;;;;;;5037980;28;20789;-78
2023/12/04 08:27:00;;;;;;;0.40;0.40;;;-1.80;99.90;;;;;;5037044;28;20462;-78
2023/12/04 08:29:26;;;;;;;0.40;0.33;;;-1.80;99.90;;;;;;5036786;28;20982;-78
2023/12/04 08:31:53;;;;;;;0.90;0.90;;;-1.80;99.90;;;;;;5036831;28;20439;-78
2023/12/04 08:34:20;;;;;;;0.80;0.80;;;-1.80;99.90;;;;;;5036684;28;20442;-78
2023/12/04 08:36:46;;;;;;;0.80;0.80;;;-1.80;99.90;;;;;;5037215;28;20482;-78
2023/12/04 08:39:13;;;;;;;0.40;0.40;;;-1.80;99.90;;;;;;5037308;28;20447;-78
2023/12/04 08:41:41;;;;;;;0.60;0.60;;;-1.80;99.90;;;;;;5037032;28;20466;-78
2023/12/04 08:44:09;;;;;;;4.23;1.20;;;-1.60;99.90;;;;;;5037298;28;20418;-78
2023/12/04 08:46:35;;;;;;;3.23;1.30;;;-1.70;99.90;;;;;;5037379;28;20467;-78
2023/12/04 08:49:02;;;;;;;1.27;1.13;;;-1.80;99.90;;;;;;5036482;28;20442;-78
2023/12/04 08:51:29;;;;;;;0.30;0.30;;;-1.80;99.90;;;;;;5036424;28;20438;-78
2023/12/04 08:53:55;;;;;;;0.87;0.87;;;-1.60;99.90;;;;;;5036497;28;20455;-78
2023/12/04 08:56:22;;;;;;;5.07;2.20;;;-1.60;99.90;;;;;;5036617;28;20478;-78
2023/12/04 08:58:51;;;;;;;0.90;0.90;;;-1.50;99.90;;;;;;5035685;28;20458;-78
2023/12/04 09:01:17;;;;;;;4.43;1.10;;;-1.50;99.90;;;;;;5035703;28;20500;-78
2023/12/04 09:03:44;;;;;;;1.73;0.87;;;-1.40;99.90;;;;;;5036701;28;20826;-78
2023/12/04 09:06:11;;;;;;;1.33;0.67;;;-1.30;99.90;;;;;;5035239;28;20478;-78
2023/12/04 09:08:38;;;;;;;3.70;1.23;;;-1.30;99.90;;;;;;5035528;28;20447;-78
2023/12/04 09:11:05;;;;;;;1.80;1.10;;;-1.20;99.90;;;;;;5035977;28;20936;-78
2023/12/04 09:13:33;;;;;;;1.70;0.70;;;-1.20;99.90;;;;;;5036313;28;20534;-78
2023/12/04 09:16:01;;;;;;;0.30;0.30;;;-1.10;99.90;;;;;;5035569;28;20894;-78
2023/12/04 09:18:28;;;;;;;0.50;0.50;;;-1.00;99.90;;;;;;5035407;28;20486;-78
2023/12/04 09:20:55;;;;;;;1.37;0.90;;;-0.90;99.90;;;;;;5035373;28;20434;-78
2023/12/04 09:23:22;;;;;;;0.60;0.60;;;-0.80;99.90;;;;;;5035455;28;20439;-78
2023/12/04 09:25:49;;;;;;;1.27;1.17;;;-0.70;99.90;;;;;;5035008;28;20450;-78
2023/12/04 09:28:16;;;;;;;0.70;0.60;;;-0.70;99.90;;;;;;5035463;28;20449;-78
2023/12/04 09:30:43;;;;;;;2.40;0.83;;;-0.60;99.90;;;;;;5035455;28;20482;-78
2023/12/04 09:33:11;;;;;;;1.27;1.10;;;-0.60;99.90;;;;;;5035054;28;20936;-78
2023/12/04 09:35:37;;;;;;;0.70;0.70;;;-0.60;99.90;;;;;;5034869;28;20442;-78
2023/12/04 09:38:04;;;;;;;0.73;0.73;;;-0.50;99.90;;;;;;5034906;28;21015;-78
2023/12/04 09:40:31;;;;;;;1.00;0.83;;;-0.50;99.90;;;;;;5035808;28;20439;-78
2023/12/04 09:42:58;;;;;;;0.73;0.63;;;-0.50;99.90;;;;;;5035077;28;20453;-78
2023/12/04 09:45:25;;;;;;;0.60;0.60;;;-0.50;99.90;;;;;;5035033;28;20435;-78
2023/12/04 09:47:53;;;;;;;6.00;1.57;;;-0.50;99.90;;;;;;5035030;28;20430;-78
2023/12/04 09:50:22;;;;;;;5.23;1.43;;;-0.50;99.90;;;;;;5035052;28;20438;-78
2023/12/04 09:52:49;;;;;;;0.70;0.70;;;-0.50;99.90;;;;;;5036688;28;20438;-78
2023/12/04 09:55:16;;;;;;;0.93;0.67;;;-0.60;99.90;;;;;;5035067;28;20454;-78
2023/12/04 09:57:44;;;;;;;1.87;0.70;;;-0.60;99.90;;;;;;5034998;28;20544;-78
2023/12/04 10:00:12;;;;;;;1.37;0.60;;;-0.60;99.90;;;;;;5046218;28;20447;-77
2023/12/04 10:02:40;;;;;;;0.40;0.40;;;-0.70;99.90;;;;;;5043720;28;20430;-76
2023/12/04 10:05:07;;;;;;;1.00;1.00;;;-0.70;99.90;;;;;;5035108;28;20454;-77
2023/12/04 10:07:36;;;;;;;0.80;0.80;;;-0.70;99.90;;;;;;5034670;28;20557;-77
2023/12/04 10:10:04;;;;;;;0.57;0.57;;;-0.60;99.90;;;;;;5035076;28;20450;-78
2023/12/04 10:12:33;;;;;;;1.33;1.20;;;-0.60;99.90;;;;;;5034470;28;20447;-78
2023/12/04 10:15:07;;;;;;;0.70;0.70;;;-0.60;99.90;;;;;;5034103;28;20541;-78
2023/12/04 10:17:37;;;;;;;3.87;1.37;;;-0.70;99.90;;;;;;5033648;28;20478;-78
2023/12/04 10:20:11;;;;;;;1.90;1.17;;;-0.70;99.90;;;;;;5034263;28;20451;-78
2023/12/04 10:22:40;;;;;;;3.37;1.20;;;-0.70;99.90;;;;;;5034162;28;20450;-77
2023/12/04 10:25:27;;;;;;;1.00;1.00;;;-0.70;99.90;;;;;;5034454;28;20462;-78
2023/12/04 10:27:54;;;;;;;1.17;0.50;;;-0.60;99.90;;;;;;5035014;28;20426;-78
2023/12/04 10:30:26;;;;;;;1.73;1.50;;;-0.50;99.90;;;;;;5038091;28;20442;-78
2023/12/04 10:33:00;;;;;;;18.23;1.27;;;-0.30;99.90;;;;;;5038498;28;20442;-78
2023/12/04 10:35:29;;;;;;;1.27;1.03;;;-0.10;99.90;;;;;;5038453;28;20775;-78
2023/12/04 10:37:57;;;;;;;0.70;0.63;;;-0.10;99.90;;;;;;5038147;28;21086;-78
2023/12/04 10:40:24;;;;;;;5.57;1.97;;;0.00;99.90;;;;;;5038616;28;20828;-78
2023/12/04 10:42:51;;;;;;;3.27;1.40;;;0.10;99.90;;;;;;5038219;28;20435;-78
2023/12/04 10:45:21;;;;;;;1.70;1.27;;;0.20;99.90;;;;;;5038866;28;20861;-78
2023/12/04 10:47:51;;;;;;;0.60;0.60;;;0.30;99.90;;;;;;5038899;28;20433;-78
2023/12/04 10:50:18;;;;;;;0.90;0.90;;;0.30;99.90;;;;;;5038313;28;20447;-78
2023/12/04 10:52:46;;;;;;;1.93;0.80;;;0.40;99.90;;;;;;5039209;28;20446;-80
2023/12/04 10:55:15;;;;;;;1.37;0.93;;;0.50;99.90;;;;;;5041297;28;20453;-79
2023/12/04 10:57:44;;;;;;;2.30;1.47;;;0.50;99.90;;;;;;5038597;28;21016;-79
2023/12/04 11:00:16;;;;;;;1.47;1.00;;;0.60;99.90;;;;;;5039387;28;20442;-78
2023/12/04 11:02:46;;;;;;;0.63;0.63;;;0.70;99.90;;;;;;5039118;28;20462;-78
2023/12/04 11:05:17;;;;;;;0.40;0.40;;;0.70;99.90;;;;;;5039207;28;20434;-78
2023/12/04 11:07:47;;;;;;;0.87;0.83;;;0.80;99.90;;;;;;5038928;28;20473;-79
2023/12/04 11:10:17;;;;;;;0.60;0.60;;;0.80;99.90;;;;;;5039353;28;20457;-78
2023/12/04 11:12:46;;;;;;;0.50;0.50;;;0.80;99.90;;;;;;5038022;28;20434;-78
2023/12/04 11:15:17;;;;;;;0.53;0.53;;;0.80;99.90;;;;;;5038385;28;20820;-78
2023/12/04 11:17:49;;;;;;;1.90;1.53;;;0.70;99.90;;;;;;5038095;28;20466;-78
2023/12/04 11:20:19;;;;;;;2.70;1.30;;;0.70;99.90;;;;;;5038266;28;20415;-78
2023/12/04 11:22:48;;;;;;;0.73;0.73;;;0.60;99.90;;;;;;5038213;28;20862;-78
2023/12/04 11:25:16;;;;;;;0.60;0.60;;;0.80;99.90;;;;;;5038102;28;20447;-78
2023/12/04 11:27:44;;;;;;;1.83;1.00;;;0.60;99.90;;;;;;5037824;28;20470;-78
2023/12/04 11:30:13;;;;;;;1.07;0.93;;;0.40;99.90;;;;;;5037885;28;20827;-78
2023/12/04 11:32:45;;;;;;;1.43;0.60;;;0.40;99.90;;;;;;5037432;28;20496;-78
2023/12/04 11:35:14;;;;;;;1.57;0.90;;;0.60;99.90;;;;;;5037176;28;20438;-78
2023/12/04 11:37:43;;;;;;;1.53;0.83;;;0.70;99.90;;;;;;5036863;28;20483;-78
2023/12/04 11:40:13;;;;;;;0.83;0.50;;;0.80;99.90;;;;;;5036147;28;20841;-78
2023/12/04 11:42:41;;;;;;;0.70;0.70;;;0.90;99.90;;;;;;5037296;28;20450;-78
2023/12/04 11:45:08;;;;;;;0.97;0.60;;;1.00;99.90;;;;;;5037173;28;20457;-78
2023/12/04 11:47:50;;;;;;;1.40;1.30;;;1.00;99.90;;;;;;5036890;28;20836;-78
2023/12/04 11:50:17;;;;;;;1.17;0.50;;;1.10;99.90;;;;;;5037153;28;20431;-78
2023/12/04 11:52:44;;;;;;;0.50;0.50;;;1.20;99.90;;;;;;5037034;28;20934;-78
2023/12/04 11:55:10;;;;;;;2.60;1.70;;;1.30;99.90;;;;;;5036859;28;20447;-78
2023/12/04 11:57:39;;;;;;;0.77;0.77;;;1.40;99.90;;;;;;5036280;28;21041;-78
2023/12/04 12:00:14;;;;;;;0.87;0.87;;;1.50;99.90;;;;;;5036730;28;20458;-78
2023/12/04 12:02:42;;;;;;;1.67;1.13;;;1.50;99.90;;;;;;5036654;28;20513;-78
2023/12/04 12:05:09;;;;;;;13.40;1.97;;;1.60;99.90;;;;;;5036643;28;20453;-78
2023/12/04 12:07:36;;;;;;;0.50;0.50;;;1.70;99.90;;;;;;5035804;28;20478;-78
2023/12/04 12:10:03;;;;;;;1.07;0.67;;;1.70;99.90;;;;;;5040266;28;20438;-78
2023/12/04 12:12:32;;;;;;;0.90;0.90;;;1.80;99.90;;;;;;5051007;28;20443;-78
2023/12/04 12:14:58;;;;;;;1.77;0.70;;;1.90;99.90;;;;;;5035648;28;20498;-78
2023/12/04 12:17:27;;;;;;;1.47;0.97;;;2.00;99.90;;;;;;5035465;28;20495;-78
2023/12/04 12:19:56;;;;;;;0.63;0.47;;;2.10;99.90;;;;;;5035436;28;20447;-78
2023/12/04 12:22:23;;;;;;;2.40;1.10;;;2.10;99.90;;;;;;5035224;28;20962;-78
2023/12/04 12:24:51;;;;;;;2.47;0.93;;;2.10;99.90;;;;;;5035716;28;20451;-77
2023/12/04 12:27:17;;;;;;;1.07;0.80;;;2.20;99.90;;;;;;5035541;28;20836;-77
2023/12/04 12:29:44;;;;;;;2.77;1.53;;;2.20;99.90;;;;;;5035399;28;20818;-78
2023/12/04 12:32:11;;;;;;;1.93;1.60;;;2.10;99.90;;;;;;5034895;28;20803;-78
2023/12/04 12:34:39;;;;;;;1.67;1.37;;;2.10;99.90;;;;;;5035263;28;20446;-78
2023/12/04 12:37:06;;;;;;;1.33;1.27;;;1.90;99.90;;;;;;5034820;28;20976;-78
2023/12/04 12:39:33;;;;;;;0.83;0.70;;;1.80;99.90;;;;;;5035273;28;20481;-77
2023/12/04 12:41:59;;;;;;;0.90;0.90;;;1.80;99.90;;;;;;5034556;28;20453;-77
2023/12/04 12:44:27;;;;;;;10.67;1.20;;;1.70;99.90;;;;;;5035249;28;20443;-77
2023/12/04 12:46:55;;;;;;;0.50;0.47;;;1.70;99.90;;;;;;5035071;28;20521;-77
2023/12/04 12:49:21;;;;;;;1.23;0.90;;;1.70;99.90;;;;;;5035616;28;20470;-77